Meteo

Meteo


Dettagli e Storico

Webcam

Webcam in aeroporto – Aggiornata ogni minuto

Osservatorio Meteorologico Cocomaro di Cona – Ferrara

NOAA IMAGE

NOAA

Powerd by MEEO S.r.l.

METAR

Aviation Digital Data Service (ADDS)

Output produced by METARs form (2258 UTC 17 February 2018)
found at http://www.aviationweather.gov/adds/metars/
 

METAR text: LIPF 171755Z 35003KT 9999 SCT040 BKN050 07/02 Q1019 RMK
OVC VIS MIN 9999
Conditions at: LIPF
(FERRARA (AUT) , IT) observed 1755 UTC 17 February 2018
Temperature: 7.0°C (45°F)
Dewpoint: 2.0°C (36°F) [RH = 70%]
Pressure (altimeter): 30.09 inches Hg (1019.0 mb)
Winds: from the N (350 degrees) at 3 MPH (3 knots; 1.6 m/s)
Visibility: 6 or more miles (10+ km)
Ceiling: 5000 feet AGL
Clouds: scattered clouds at 4000 feet AGL
broken clouds at 5000 feet AGL
Weather: no significant weather observed at this time

METAR text: LIPE 172250Z VRB02KT 7000 BKN030 05/03 Q1018
Conditions at: LIPE
(BOLOGNA/BORGO (A, IT) observed 2250 UTC 17 February 2018
Temperature: 5.0°C (41°F)
Dewpoint: 3.0°C (37°F) [RH = 87%]
Pressure (altimeter): 30.06 inches Hg (1018.0 mb)
Winds: variable direction winds at 2 MPH (2 knots; 1.0 m/s)
Visibility: 4 miles (7 km)
Ceiling: 3000 feet AGL
Clouds: broken clouds at 3000 feet AGL
Weather: no significant weather observed at this time

Forecast for: LIPE (BOLOGNA/BORGO (A, IT)
Text: TAF LIPE 171700Z 1718/1818 VRB04KT 4000 BR SCT020 BKN040
Forecast period: 1800 UTC 17 February 2018 to 0400 UTC 18 February 2018
Forecast type: FROM: standard forecast or significant change
Winds: variable direction winds at 5 MPH (4 knots; 2.1 m/s)
Visibility: 2.49 miles (4.01 km)
Ceiling: 4000 feet AGL
Clouds: scattered clouds at 2000 feet AGL
broken clouds at 4000 feet AGL
Weather: BR  (mist)
Text: TEMPO 1721/1818 2000 RA
Forecast period: 2100 UTC 17 February 2018 to 1800 UTC 18 February 2018
Forecast type: TEMPORARY: The following changes expected for less than half the time period
Visibility: 1.24 miles (2.00 km)
Weather: RA  (rain)
Text: BECMG 1804/1806 06010KT
Forecast period: 0400 to 1800 UTC 18 February 2018
Forecast type: BECOMING: Conditions expected to become as follows by 0600 UTC 18 February 2018
Winds: from the ENE (60 degrees) at 12 MPH (10 knots; 5.2 m/s)
Visibility: 2.49 miles (4.01 km)
Ceiling: 4000 feet AGL
Clouds: scattered clouds at 2000 feet AGL
broken clouds at 4000 feet AGL
Weather: BR  (mist)

METAR text: LIPX 172250Z 29004KT 5000 -DZ BR BKN025 05/03 Q1018
Conditions at: LIPX
(VILLAFRANCA(CV/M, IT) observed 2250 UTC 17 February 2018
Temperature: 5.0°C (41°F)
Dewpoint: 3.0°C (37°F) [RH = 87%]
Pressure (altimeter): 30.06 inches Hg (1018.0 mb)
Winds: from the WNW (290 degrees) at 5 MPH (4 knots; 2.1 m/s)
Visibility: 3 miles (5 km)
Ceiling: 2500 feet AGL
Clouds: broken clouds at 2500 feet AGL
Weather: -DZ BR  (light drizzle, mist)

Forecast for: LIPX (VILLAFRANCA(CV/M, IT)
Text: TAF LIPX 172000Z 1721/1806 VRB05KT 4000 SCT020 BKN050
Forecast period: 2100 UTC 17 February 2018 to 0600 UTC 18 February 2018
Forecast type: FROM: standard forecast or significant change
Winds: variable direction winds at 6 MPH (5 knots; 2.6 m/s)
Visibility: 2.49 miles (4.01 km)
Ceiling: 5000 feet AGL
Clouds: scattered clouds at 2000 feet AGL
broken clouds at 5000 feet AGL
Weather: no significant weather forecast for this period
Text: TEMPO 1721/1806 2000 DZ BR BKN012 BKN040
Forecast period: 2100 UTC 17 February 2018 to 0600 UTC 18 February 2018
Forecast type: TEMPORARY: The following changes expected for less than half the time period
Visibility: 1.24 miles (2.00 km)
Ceiling: 1200 feet AGL
Clouds: broken clouds at 1200 feet AGL
broken clouds at 4000 feet AGL
Weather: DZ BR  (drizzle, mist)

METAR text: LIPZ 172250Z 05003KT 5000 BR BKN040 06/04 Q1018 NOSIG
Conditions at: LIPZ
(VENEZIA/TESSERA , IT) observed 2250 UTC 17 February 2018
Temperature: 6.0°C (43°F)
Dewpoint: 4.0°C (39°F) [RH = 87%]
Pressure (altimeter): 30.06 inches Hg (1018.0 mb)
Winds: from the NE (50 degrees) at 3 MPH (3 knots; 1.6 m/s)
Visibility: 3 miles (5 km)
Ceiling: 4000 feet AGL
Clouds: broken clouds at 4000 feet AGL
Weather: BR  (mist)

Forecast for: LIPZ (VENEZIA/TESSERA , IT)
Text: TAF LIPZ 171700Z 1718/1824 VRB05KT 7000 BKN040
Forecast period: 1800 UTC 17 February 2018 to 0400 UTC 18 February 2018
Forecast type: FROM: standard forecast or significant change
Winds: variable direction winds at 6 MPH (5 knots; 2.6 m/s)
Visibility: 4 miles (7 km)
Ceiling: 4000 feet AGL
Clouds: broken clouds at 4000 feet AGL
Weather: no significant weather forecast for this period
Text: TEMPO 1721/1812 3000 RA
Forecast period: 2100 UTC 17 February 2018 to 1200 UTC 18 February 2018
Forecast type: TEMPORARY: The following changes expected for less than half the time period
Visibility: 1.86 miles (2.99 km)
Weather: RA  (rain)
Text: BECMG 1804/1806 06012KT
Forecast period: 0400 UTC 18 February 2018 to 0000 UTC 19 February 2018
Forecast type: BECOMING: Conditions expected to become as follows by 0600 UTC 18 February 2018
Winds: from the ENE (60 degrees) at 14 MPH (12 knots; 6.2 m/s)
Visibility: 4 miles (7 km)
Ceiling: 4000 feet AGL
Clouds: broken clouds at 4000 feet AGL
Weather: no significant weather forecast for this period